createdAt,value
2022-10-28T00:01:08.854Z,33.82
2022-10-28T00:03:39.619Z,33.68
2022-10-28T00:06:10.977Z,33.83
2022-10-28T00:08:40.064Z,34.51
2022-10-28T00:11:10.726Z,34.59
2022-10-28T00:13:39.487Z,34.57
2022-10-28T00:16:11.686Z,34.09
2022-10-28T00:18:40.260Z,34.40
2022-10-28T00:21:10.588Z,34.51
2022-10-28T00:23:39.171Z,34.43
2022-10-28T00:26:09.340Z,34.40
2022-10-28T00:28:41.594Z,33.83
2022-10-28T00:31:13.266Z,33.95
2022-10-28T00:33:41.761Z,34.49
2022-10-28T00:36:11.946Z,34.31
2022-10-28T00:38:40.391Z,34.73
2022-10-28T00:41:09.615Z,34.63
2022-10-28T00:43:39.216Z,34.26
2022-10-28T00:46:16.634Z,33.95
2022-10-28T00:48:47.035Z,34.42
2022-10-28T00:51:15.789Z,34.32
2022-10-28T00:53:46.013Z,34.44
2022-10-28T00:56:14.452Z,34.57
2022-10-28T00:58:43.041Z,34.80
2022-10-28T01:01:11.466Z,34.98
2022-10-28T01:03:41.187Z,34.76
2022-10-28T01:06:09.945Z,35.24
2022-10-28T01:08:38.122Z,35.14
2022-10-28T01:11:26.947Z,33.89
2022-10-28T01:14:11.875Z,34.17
2022-10-28T01:16:45.062Z,34.68
2022-10-28T01:19:50.240Z,33.99
2022-10-28T01:22:22.218Z,34.79
2022-10-28T01:25:13.980Z,34.27
2022-10-28T01:28:08.896Z,33.70
2022-10-28T01:30:48.663Z,34.37
2022-10-28T01:33:23.295Z,34.40
2022-10-28T01:35:54.228Z,34.80
2022-10-28T01:38:30.041Z,34.64
2022-10-28T01:41:02.527Z,35.05
2022-10-28T01:43:33.603Z,35.27
2022-10-28T01:46:05.101Z,35.13
2022-10-28T01:48:38.852Z,35.02
2022-10-28T01:51:10.273Z,35.10
2022-10-28T01:53:41.824Z,35.40
2022-10-28T01:56:11.101Z,34.17
2022-10-28T01:58:40.441Z,35.14
2022-10-28T02:01:10.782Z,35.04
2022-10-28T02:03:41.005Z,35.03
2022-10-28T02:06:16.265Z,34.74
2022-10-28T02:09:05.386Z,34.42
2022-10-28T02:11:45.575Z,34.52
2022-10-28T02:14:34.401Z,34.23
2022-10-28T02:17:06.693Z,34.79
2022-10-28T02:19:44.053Z,34.50
2022-10-28T02:22:18.710Z,34.75
2022-10-28T02:24:52.555Z,34.79
2022-10-28T02:27:26.908Z,34.64
2022-10-28T02:29:57.449Z,34.88
2022-10-28T02:32:27.169Z,34.96
2022-10-28T02:34:59.758Z,34.49
2022-10-28T02:37:29.478Z,34.53
2022-10-28T02:40:00.068Z,34.68
2022-10-28T02:42:29.954Z,34.58
2022-10-28T02:45:01.343Z,34.84
2022-10-28T02:47:32.780Z,34.73
2022-10-28T02:50:04.887Z,34.74
2022-10-28T02:52:34.827Z,34.83
2022-10-28T02:55:05.967Z,34.80
2022-10-28T02:57:37.474Z,34.78
2022-10-28T03:00:09.736Z,34.52
2022-10-28T03:02:38.099Z,34.92
2022-10-28T03:05:08.631Z,34.47
2022-10-28T03:07:36.659Z,34.77
2022-10-28T03:10:05.370Z,34.94
2022-10-28T03:12:33.809Z,34.93
2022-10-28T03:15:03.065Z,34.95
2022-10-28T03:17:31.414Z,34.82
2022-10-28T03:19:59.666Z,34.83
2022-10-28T03:22:29.285Z,34.70
2022-10-28T03:24:57.714Z,34.80
2022-10-28T03:27:25.871Z,34.88
2022-10-28T03:29:54.160Z,34.86
2022-10-28T03:34:55.629Z,34.80
2022-10-28T03:37:23.829Z,34.87
2022-10-28T03:39:53.439Z,34.55
2022-10-28T03:42:21.687Z,34.98
2022-10-28T03:44:50.035Z,34.81
2022-10-28T03:47:18.203Z,35.01
2022-10-28T03:49:46.578Z,34.81
2022-10-28T03:52:14.736Z,34.92
2022-10-28T03:54:43.303Z,35.29
2022-10-28T03:57:12.926Z,34.82
2022-10-28T03:59:43.467Z,34.92
2022-10-28T04:02:11.620Z,34.88
2022-10-28T04:04:40.129Z,34.97
2022-10-28T04:07:08.407Z,34.97
2022-10-28T04:09:36.856Z,34.95
2022-10-28T04:12:06.604Z,34.82
2022-10-28T04:14:36.514Z,34.90
2022-10-28T04:17:04.827Z,34.98
2022-10-28T04:19:35.615Z,34.94
2022-10-28T04:22:03.813Z,34.95
2022-10-28T04:24:32.822Z,34.72
2022-10-28T04:27:01.067Z,34.75
2022-10-28T04:29:29.631Z,34.71
2022-10-28T04:31:59.548Z,34.52
2022-10-28T04:34:27.936Z,34.69
2022-10-28T04:36:56.219Z,34.48
2022-10-28T04:39:25.081Z,34.88
2022-10-28T04:41:53.834Z,34.75
2022-10-28T04:44:22.304Z,34.75
2022-10-28T04:46:50.502Z,35.05
2022-10-28T04:49:20.376Z,35.09
2022-10-28T04:51:48.607Z,35.25
2022-10-28T04:54:16.914Z,35.18
2022-10-28T04:56:45.176Z,35.32
2022-10-28T04:59:13.709Z,35.49
2022-10-28T05:01:42.178Z,35.47
2022-10-28T05:04:10.584Z,35.25
2022-10-28T05:06:40.176Z,35.12
2022-10-28T05:09:08.434Z,35.33
2022-10-28T05:11:36.628Z,35.46
2022-10-28T05:14:05.116Z,35.50
2022-10-28T05:16:33.314Z,35.59
2022-10-28T05:19:01.741Z,35.10
2022-10-28T05:21:29.938Z,35.27
2022-10-28T05:23:59.580Z,35.12
2022-10-28T05:26:27.736Z,34.94
2022-10-28T05:28:56.098Z,35.38
2022-10-28T05:31:24.180Z,35.31
2022-10-28T05:33:52.621Z,35.39
2022-10-28T05:36:20.895Z,35.42
2022-10-28T05:38:49.775Z,35.60
2022-10-28T05:41:19.439Z,35.35
2022-10-28T05:43:47.820Z,35.63
2022-10-28T05:46:15.965Z,35.68
2022-10-28T05:48:44.276Z,35.75
2022-10-28T05:51:12.434Z,35.40
2022-10-28T05:53:42.116Z,34.64
2022-10-28T05:56:10.289Z,34.24
2022-10-28T05:58:40.090Z,33.97
2022-10-28T06:01:08.986Z,34.07
2022-10-28T06:03:37.517Z,34.22
2022-10-28T06:06:05.748Z,33.68
2022-10-28T06:08:34.180Z,33.01
2022-10-28T06:11:00.995Z,32.77
2022-10-28T06:13:29.579Z,32.40
2022-10-28T06:16:00.511Z,31.20
2022-10-28T06:18:28.923Z,30.83
2022-10-28T06:20:58.342Z,30.45
2022-10-28T06:23:27.767Z,30.55
2022-10-28T06:28:31.170Z,30.10
2022-10-28T06:31:03.765Z,29.71
2022-10-28T06:33:32.758Z,30.02
2022-10-28T06:36:01.492Z,29.04
2022-10-28T06:38:30.129Z,28.15
2022-10-28T06:40:58.931Z,27.37
2022-10-28T06:43:27.300Z,26.69
2022-10-28T06:45:56.087Z,26.21
2022-10-28T06:48:27.437Z,25.08
2022-10-28T06:50:56.363Z,24.36
2022-10-28T06:53:24.748Z,23.71
2022-10-28T06:55:57.411Z,22.67
2022-10-28T06:58:26.564Z,22.73
2022-10-28T07:00:56.862Z,22.03
2022-10-28T07:03:24.894Z,21.97
2022-10-28T07:05:56.274Z,21.74
2022-10-28T07:08:24.632Z,21.32
2022-10-28T07:10:56.893Z,20.67
2022-10-28T07:13:25.573Z,20.59
2022-10-28T07:15:53.922Z,20.12
2022-10-28T07:18:22.556Z,19.50
2022-10-28T07:20:53.931Z,18.77
2022-10-28T07:23:23.291Z,16.81
2022-10-28T07:25:55.213Z,16.71
2022-10-28T07:28:23.857Z,16.86
2022-10-28T07:30:52.596Z,16.73
2022-10-28T07:33:21.255Z,16.23
2022-10-28T07:35:49.583Z,15.95
2022-10-28T07:38:17.989Z,15.74
2022-10-28T07:40:47.766Z,15.51
2022-10-28T07:43:15.992Z,15.32
2022-10-28T07:45:44.342Z,15.26
2022-10-28T07:48:12.487Z,14.50
2022-10-28T07:50:41.379Z,13.97
2022-10-28T07:53:09.675Z,13.77
2022-10-28T07:55:38.322Z,13.88
2022-10-28T07:58:08.045Z,13.43
2022-10-28T08:00:36.726Z,13.46
2022-10-28T08:03:04.940Z,13.18
2022-10-28T08:05:33.441Z,12.95
2022-10-28T08:08:01.806Z,13.01
2022-10-28T08:10:30.444Z,12.70
2022-10-28T08:12:59.002Z,12.87
2022-10-28T08:15:29.899Z,12.58
2022-10-28T08:17:58.048Z,12.75
2022-10-28T08:20:26.580Z,12.83
2022-10-28T08:22:55.008Z,12.70
2022-10-28T08:25:23.552Z,12.30
2022-10-28T08:27:51.650Z,11.54
2022-10-28T08:30:20.131Z,11.16
2022-10-28T08:32:49.810Z,10.67
2022-10-28T08:35:18.269Z,10.58
2022-10-28T08:37:52.681Z,9.79
2022-10-28T08:40:26.887Z,9.75
2022-10-28T08:42:57.995Z,9.79
2022-10-28T08:45:32.719Z,9.99
2022-10-28T08:48:14.317Z,9.93
2022-10-28T08:50:48.500Z,9.03
2022-10-28T08:53:19.594Z,8.76
2022-10-28T08:55:48.956Z,8.64
2022-10-28T08:58:21.172Z,8.29
2022-10-28T09:00:52.582Z,8.61
2022-10-28T09:03:23.808Z,8.98
2022-10-28T09:05:55.947Z,8.89
2022-10-28T09:08:25.671Z,8.54
2022-10-28T09:11:04.275Z,8.28
2022-10-28T09:13:45.362Z,7.84
2022-10-28T09:16:20.001Z,7.61
2022-10-28T09:19:05.117Z,7.35
2022-10-28T09:21:35.053Z,7.65
2022-10-28T09:24:08.418Z,7.44
2022-10-28T09:26:44.755Z,7.42
2022-10-28T09:29:34.742Z,7.86
2022-10-28T09:32:09.491Z,8.40
2022-10-28T09:34:43.649Z,9.10
2022-10-28T09:37:16.200Z,9.06
2022-10-28T09:39:45.696Z,9.35
2022-10-28T09:42:19.521Z,8.57
2022-10-28T09:44:51.205Z,7.79
2022-10-28T09:47:23.202Z,7.35
2022-10-28T09:49:55.205Z,6.99
2022-10-28T09:52:27.862Z,6.49
2022-10-28T09:54:56.473Z,6.01
2022-10-28T09:57:30.925Z,5.71
2022-10-28T10:00:00.646Z,5.76
2022-10-28T10:02:31.964Z,5.46
2022-10-28T10:05:03.481Z,5.65
2022-10-28T10:07:35.736Z,5.75
2022-10-28T10:10:07.613Z,5.88
2022-10-28T10:12:35.943Z,6.17
2022-10-28T10:15:07.345Z,6.31
2022-10-28T10:17:41.310Z,6.33
2022-10-28T10:20:12.848Z,6.97
2022-10-28T10:22:42.650Z,7.05
2022-10-28T10:25:31.873Z,7.00
2022-10-28T10:28:02.294Z,8.20
2022-10-28T10:30:33.301Z,8.46
2022-10-28T10:33:02.621Z,9.10
2022-10-28T10:35:36.754Z,9.44
2022-10-28T10:38:06.953Z,9.37
2022-10-28T10:40:36.688Z,9.09
2022-10-28T10:43:23.677Z,8.52
2022-10-28T10:45:54.107Z,8.21
2022-10-28T10:48:22.577Z,7.50
2022-10-28T10:50:52.550Z,6.98
2022-10-28T10:53:24.567Z,6.99
2022-10-28T10:55:55.827Z,6.94
2022-10-28T10:58:26.448Z,6.93
2022-10-28T11:00:57.029Z,6.36
2022-10-28T11:03:27.959Z,6.33
2022-10-28T11:06:18.346Z,6.10
2022-10-28T11:08:46.433Z,6.80
2022-10-28T11:11:16.557Z,6.62
2022-10-28T11:13:46.406Z,6.57
2022-10-28T11:16:22.705Z,6.33
2022-10-28T11:18:55.256Z,6.32
2022-10-28T11:21:48.033Z,5.65
2022-10-28T11:24:32.257Z,5.67
2022-10-28T11:27:08.344Z,5.65
2022-10-28T11:29:37.679Z,5.49
2022-10-28T11:32:17.815Z,5.44
2022-10-28T11:34:59.669Z,5.36
2022-10-28T11:37:39.938Z,7.13
2022-10-28T11:40:17.747Z,8.32
2022-10-28T11:42:52.436Z,9.31
2022-10-28T11:45:25.487Z,10.60
2022-10-28T11:48:12.760Z,10.68
2022-10-28T11:50:53.263Z,11.36
2022-10-28T11:53:59.933Z,11.86
2022-10-28T11:56:35.855Z,12.57
2022-10-28T11:59:27.811Z,12.98
2022-10-28T12:02:04.730Z,13.82
2022-10-28T12:04:42.095Z,14.19
2022-10-28T12:07:26.534Z,15.27
2022-10-28T12:10:09.518Z,15.43
2022-10-28T12:12:44.829Z,16.28
2022-10-28T12:15:19.828Z,15.99
2022-10-28T12:17:54.100Z,16.00
2022-10-28T12:20:25.447Z,16.24
2022-10-28T12:22:56.611Z,16.35
2022-10-28T12:25:27.948Z,16.52
2022-10-28T12:27:58.889Z,15.69
2022-10-28T12:30:29.581Z,15.78
2022-10-28T12:33:01.932Z,15.61
2022-10-28T12:35:32.766Z,16.40
2022-10-28T12:38:04.925Z,16.27
2022-10-28T12:40:37.300Z,16.57
2022-10-28T12:43:11.426Z,16.59
2022-10-28T12:45:40.368Z,16.71
2022-10-28T12:48:17.852Z,16.43
2022-10-28T12:50:51.134Z,17.39
2022-10-28T12:53:25.975Z,17.46
2022-10-28T12:55:58.676Z,17.78
2022-10-28T12:58:32.325Z,18.05
2022-10-28T13:01:03.042Z,18.52
2022-10-28T13:03:33.543Z,18.61
2022-10-28T13:06:24.595Z,18.15
2022-10-28T13:08:57.556Z,17.94
2022-10-28T13:11:49.997Z,18.16
2022-10-28T13:14:33.937Z,18.86
2022-10-28T13:17:17.339Z,18.70
2022-10-28T13:19:56.900Z,18.73
2022-10-28T13:22:39.464Z,18.85
2022-10-28T13:25:23.893Z,19.11
2022-10-28T13:27:57.237Z,19.31
2022-10-28T13:30:32.343Z,19.29
2022-10-28T13:33:07.415Z,19.57
2022-10-28T13:35:36.213Z,19.90
2022-10-28T13:38:11.060Z,19.54
2022-10-28T13:41:12.892Z,19.55
2022-10-28T13:44:00.925Z,19.33
2022-10-28T13:47:05.956Z,19.91
2022-10-28T13:49:35.111Z,21.07
2022-10-28T13:52:05.491Z,21.14
2022-10-28T13:54:37.590Z,20.98
2022-10-28T13:57:10.169Z,20.65
2022-10-28T13:59:51.536Z,20.59
2022-10-28T14:02:34.960Z,21.05
2022-10-28T14:05:08.415Z,21.09
2022-10-28T14:07:38.353Z,21.60
2022-10-28T14:10:24.834Z,21.12
2022-10-28T14:12:55.727Z,21.82
2022-10-28T14:15:29.086Z,21.79
2022-10-28T14:18:10.184Z,21.90
2022-10-28T14:20:58.866Z,21.83
2022-10-28T14:23:51.618Z,21.66
2022-10-28T14:26:19.701Z,22.45
2022-10-28T14:28:53.290Z,22.19
2022-10-28T14:31:53.935Z,21.96
2022-10-28T14:34:41.510Z,22.22
2022-10-28T14:37:46.574Z,22.12
2022-10-28T14:40:24.624Z,22.05
2022-10-28T14:43:34.209Z,22.14
2022-10-28T14:46:10.928Z,22.74
2022-10-28T14:48:49.167Z,22.47
2022-10-28T14:51:21.241Z,22.85
2022-10-28T14:53:49.760Z,23.42
2022-10-28T14:58:59.445Z,23.04
2022-10-28T15:01:29.972Z,23.32
2022-10-28T15:04:01.651Z,23.67
2022-10-28T15:06:36.367Z,23.52
2022-10-28T15:09:08.031Z,23.82
2022-10-28T15:11:36.391Z,23.91
2022-10-28T15:14:26.040Z,23.56
2022-10-28T15:16:54.838Z,24.33
2022-10-28T15:19:26.081Z,24.04
2022-10-28T15:22:19.215Z,23.78
2022-10-28T15:24:58.169Z,24.10
2022-10-28T15:27:28.936Z,24.69
2022-10-28T15:29:57.962Z,25.03
2022-10-28T15:32:31.922Z,24.79
2022-10-28T15:35:00.848Z,24.86
2022-10-28T15:37:31.510Z,24.84
2022-10-28T15:40:21.499Z,24.80
2022-10-28T15:42:55.124Z,24.92
2022-10-28T15:45:26.439Z,25.08
2022-10-28T15:47:55.815Z,25.57
2022-10-28T15:50:30.881Z,25.52
2022-10-28T15:53:32.799Z,25.29
2022-10-28T15:56:09.539Z,25.16
2022-10-28T15:58:40.305Z,26.24
2022-10-28T16:01:10.798Z,26.24
2022-10-28T16:03:44.000Z,26.27
2022-10-28T16:06:24.707Z,25.97
2022-10-28T16:09:06.665Z,26.30
2022-10-28T16:11:39.520Z,27.23
2022-10-28T16:14:30.840Z,26.60
2022-10-28T16:19:44.176Z,27.20
2022-10-28T16:22:13.528Z,27.58
2022-10-28T16:24:43.744Z,27.52
2022-10-28T16:27:18.177Z,27.11
2022-10-28T16:29:46.640Z,27.86
2022-10-28T16:32:15.856Z,28.38
2022-10-28T16:34:46.965Z,28.15
2022-10-28T16:37:21.716Z,28.10
2022-10-28T16:39:51.810Z,28.36
2022-10-28T16:42:20.791Z,28.86
2022-10-28T16:44:49.417Z,28.61
2022-10-28T16:47:19.351Z,28.90
2022-10-28T16:49:54.478Z,28.72
2022-10-28T16:52:27.565Z,28.79
2022-10-28T16:54:58.348Z,28.61
2022-10-28T16:57:30.732Z,28.91
2022-10-28T17:00:00.790Z,29.08
2022-10-28T17:02:36.002Z,29.04
2022-10-28T17:05:07.927Z,29.29
2022-10-28T17:07:41.631Z,29.14
2022-10-28T17:10:22.876Z,29.23
2022-10-28T17:13:01.839Z,29.20
2022-10-28T17:15:32.963Z,29.77
2022-10-28T17:18:01.777Z,29.64
2022-10-28T17:20:31.400Z,29.57
2022-10-28T17:23:07.857Z,29.76
2022-10-28T17:26:01.642Z,28.51
2022-10-28T17:28:32.924Z,29.32
2022-10-28T17:31:06.150Z,29.28
2022-10-28T17:33:34.575Z,29.58
2022-10-28T17:36:03.341Z,29.79
2022-10-28T17:38:31.612Z,29.57
2022-10-28T17:41:01.493Z,29.39
2022-10-28T17:43:29.722Z,30.14
2022-10-28T17:46:04.739Z,29.37
2022-10-28T17:48:33.135Z,30.42
2022-10-28T17:51:01.569Z,30.41
2022-10-28T17:53:30.068Z,30.26
2022-10-28T17:55:58.942Z,30.39
2022-10-28T17:58:28.864Z,30.35
2022-10-28T18:00:58.318Z,30.18
2022-10-28T18:03:27.053Z,30.49
2022-10-28T18:05:55.527Z,30.52
2022-10-28T18:08:23.812Z,30.61
2022-10-28T18:10:53.000Z,30.04
2022-10-28T18:13:22.036Z,30.40
2022-10-28T18:15:51.706Z,30.41
2022-10-28T18:18:19.977Z,30.06
2022-10-28T18:20:53.687Z,29.76
2022-10-28T18:23:21.923Z,30.57
2022-10-28T18:25:58.919Z,30.19
2022-10-28T18:28:27.120Z,30.72
2022-10-28T18:30:56.993Z,30.67
2022-10-28T18:33:25.218Z,30.82
2022-10-28T18:35:53.644Z,30.90
2022-10-28T18:38:21.826Z,30.70
2022-10-28T18:40:50.067Z,30.69
2022-10-28T18:43:20.067Z,30.94
2022-10-28T18:45:48.753Z,31.15
2022-10-28T18:48:18.604Z,31.02
2022-10-28T18:50:56.421Z,30.56
2022-10-28T18:53:24.886Z,31.39
2022-10-28T18:55:53.016Z,31.39
2022-10-28T18:58:21.093Z,31.13
2022-10-28T19:00:49.629Z,31.13
2022-10-28T19:03:24.027Z,30.45
2022-10-28T19:05:52.441Z,31.33
2022-10-28T19:08:21.518Z,31.09
2022-10-28T19:10:56.274Z,30.34
2022-10-28T19:13:24.512Z,30.88
2022-10-28T19:15:53.037Z,31.23
2022-10-28T19:18:22.525Z,30.91
2022-10-28T19:20:50.906Z,31.17
2022-10-28T19:23:19.017Z,30.93
2022-10-28T19:25:55.007Z,30.73
2022-10-28T19:28:23.292Z,31.25
2022-10-28T19:30:51.767Z,31.38
2022-10-28T19:33:20.262Z,31.15
2022-10-28T19:35:49.874Z,31.00
2022-10-28T19:38:18.443Z,31.44
2022-10-28T19:40:46.628Z,31.45
2022-10-28T19:43:14.893Z,31.42
2022-10-28T19:45:43.163Z,31.48
2022-10-28T19:48:13.312Z,31.40
2022-10-28T19:50:51.405Z,30.87
2022-10-28T19:53:19.823Z,31.68
2022-10-28T19:55:48.114Z,31.72
2022-10-28T19:58:16.526Z,31.42
2022-10-28T20:00:44.698Z,31.40
2022-10-28T20:03:13.631Z,31.55
2022-10-28T20:05:42.288Z,31.72
2022-10-28T20:08:12.230Z,31.44
2022-10-28T20:10:41.619Z,31.75
2022-10-28T20:13:10.259Z,31.54
2022-10-28T20:15:38.548Z,31.68
2022-10-28T20:18:07.161Z,31.62
2022-10-28T20:20:36.155Z,31.40
2022-10-28T20:23:04.536Z,31.91
2022-10-28T20:25:34.166Z,31.37
2022-10-28T20:28:02.332Z,31.43
2022-10-28T20:30:30.686Z,31.76
2022-10-28T20:32:58.880Z,31.68
2022-10-28T20:35:27.047Z,31.67
2022-10-28T20:37:55.678Z,31.75
2022-10-28T20:40:24.015Z,31.46
2022-10-28T20:42:54.163Z,31.69
2022-10-28T20:45:22.637Z,31.68
2022-10-28T20:47:50.945Z,31.62
2022-10-28T20:50:19.716Z,31.77
2022-10-28T20:52:48.141Z,31.72
2022-10-28T20:55:16.369Z,31.79
2022-10-28T20:57:44.839Z,31.97
2022-10-28T21:00:15.416Z,31.31
2022-10-28T21:02:44.050Z,31.55
2022-10-28T21:05:12.264Z,31.96
2022-10-28T21:07:40.653Z,32.14
2022-10-28T21:10:10.316Z,31.56
2022-10-28T21:12:38.615Z,31.79
2022-10-28T21:15:07.715Z,32.02
2022-10-28T21:17:37.632Z,31.99
2022-10-28T21:20:07.184Z,32.17
2022-10-28T21:22:35.617Z,32.05
2022-10-28T21:25:04.047Z,32.08
2022-10-28T21:27:34.119Z,32.13
2022-10-28T21:30:02.343Z,32.26
2022-10-28T21:32:30.829Z,32.33
2022-10-28T21:35:00.424Z,32.33
2022-10-28T21:37:28.823Z,32.54
2022-10-28T21:40:00.959Z,32.65
2022-10-28T21:42:29.621Z,32.27
2022-10-28T21:44:58.062Z,32.42
2022-10-28T21:47:26.664Z,32.35
2022-10-28T21:49:54.902Z,32.53
2022-10-28T21:52:24.629Z,31.92
2022-10-28T21:54:52.837Z,32.36
2022-10-28T21:57:21.107Z,32.09
2022-10-28T21:59:50.052Z,32.18
2022-10-28T22:02:18.693Z,32.19
2022-10-28T22:04:47.307Z,32.58
2022-10-28T22:07:15.393Z,32.36
2022-10-28T22:09:45.049Z,32.11
2022-10-28T22:12:13.120Z,32.20
2022-10-28T22:14:41.363Z,32.31
2022-10-28T22:17:09.509Z,32.31
2022-10-28T22:19:37.606Z,32.28
2022-10-28T22:22:06.299Z,32.49
2022-10-28T22:24:34.366Z,32.32
2022-10-28T22:27:04.213Z,32.00
2022-10-28T22:29:32.522Z,32.25
2022-10-28T22:32:00.618Z,32.55
2022-10-28T22:34:28.979Z,32.27
2022-10-28T22:36:57.167Z,32.13
2022-10-28T22:39:25.416Z,31.99
2022-10-28T22:41:53.788Z,32.02
2022-10-28T22:44:23.335Z,31.53
2022-10-28T22:46:51.700Z,31.99
2022-10-28T22:49:22.511Z,32.14
2022-10-28T22:51:50.805Z,31.86
2022-10-28T22:54:19.623Z,31.94
2022-10-28T22:56:47.899Z,31.94
2022-10-28T22:59:15.977Z,31.93
2022-10-28T23:01:45.668Z,31.74
2022-10-28T23:04:14.028Z,31.86
2022-10-28T23:06:42.321Z,32.16
2022-10-28T23:09:10.395Z,32.26
2022-10-28T23:11:38.707Z,32.33
2022-10-28T23:14:07.066Z,32.09
2022-10-28T23:16:35.402Z,32.04
2022-10-28T23:19:04.887Z,31.95
2022-10-28T23:21:32.985Z,32.08
2022-10-28T23:24:02.656Z,31.93
2022-10-28T23:26:31.136Z,31.92
2022-10-28T23:29:00.692Z,31.96
2022-10-28T23:31:29.395Z,32.32
2022-10-28T23:33:59.179Z,32.14
2022-10-28T23:36:28.708Z,31.60
2022-10-28T23:38:57.830Z,31.99
2022-10-28T23:41:25.903Z,32.26
2022-10-28T23:43:53.985Z,32.01
2022-10-28T23:46:22.384Z,31.80
2022-10-28T23:48:50.466Z,31.98
2022-10-28T23:51:19.418Z,32.14
2022-10-28T23:53:49.438Z,32.00
2022-10-28T23:56:17.641Z,32.20
2022-10-28T23:58:46.004Z,32.34
